createdAt,value
2018-10-06T00:01:53.323Z,13.60
2018-10-06T00:04:23.307Z,20.02
2018-10-06T00:06:53.256Z,18.07
2018-10-06T00:09:23.255Z,15.28
2018-10-06T00:11:53.217Z,16.55
2018-10-06T00:14:23.322Z,14.73
2018-10-06T00:16:53.245Z,13.80
2018-10-06T00:19:23.283Z,12.75
2018-10-06T00:21:53.197Z,12.47
2018-10-06T00:24:23.125Z,13.32
2018-10-06T00:26:53.087Z,23.83
2018-10-06T00:29:23.886Z,12.45
2018-10-06T00:31:54.586Z,14.23
2018-10-06T00:34:25.031Z,14.78
2018-10-06T00:36:54.969Z,14.80
2018-10-06T00:39:24.914Z,16.00
2018-10-06T00:41:54.862Z,15.18
2018-10-06T00:44:24.909Z,11.18
2018-10-06T00:46:54.854Z,21.70
2018-10-06T00:49:24.826Z,13.18
2018-10-06T00:51:54.856Z,12.82
2018-10-06T00:54:24.846Z,14.65
2018-10-06T00:56:54.818Z,14.18
2018-10-06T00:59:24.758Z,10.82
2018-10-06T01:01:54.756Z,12.90
2018-10-06T01:04:24.698Z,12.07
2018-10-06T01:06:54.707Z,12.43
2018-10-06T01:09:25.295Z,13.43
2018-10-06T01:11:55.210Z,11.60
2018-10-06T01:14:25.226Z,19.12
2018-10-06T01:16:55.220Z,15.45
2018-10-06T01:19:25.246Z,12.65
2018-10-06T01:21:55.349Z,21.27
2018-10-06T01:24:25.311Z,21.73
2018-10-06T01:26:55.258Z,12.90
2018-10-06T01:29:25.291Z,12.60
2018-10-06T01:31:55.227Z,12.40
2018-10-06T01:34:25.843Z,20.65
2018-10-06T01:36:55.759Z,20.45
2018-10-06T01:39:25.730Z,11.05
2018-10-06T01:41:55.786Z,12.68
2018-10-06T01:44:25.803Z,10.95
2018-10-06T01:46:56.298Z,16.73
2018-10-06T01:49:27.189Z,11.80
2018-10-06T01:51:57.130Z,14.35
2018-10-06T01:54:27.071Z,10.70
2018-10-06T01:56:57.082Z,11.63
2018-10-06T01:59:27.037Z,10.68
2018-10-06T02:01:56.973Z,13.08
2018-10-06T02:04:26.922Z,16.37
2018-10-06T02:06:57.021Z,11.53
2018-10-06T02:09:27.530Z,16.52
2018-10-06T02:11:57.584Z,11.90
2018-10-06T02:14:27.557Z,14.58
2018-10-06T02:16:58.131Z,9.70
2018-10-06T02:19:29.048Z,14.50
2018-10-06T02:21:59.028Z,14.85
2018-10-06T02:24:29.566Z,14.83
2018-10-06T02:26:59.534Z,10.43
2018-10-06T02:29:29.464Z,15.48
2018-10-06T02:31:59.523Z,18.87
2018-10-06T02:34:29.458Z,18.12
2018-10-06T02:36:59.562Z,12.60
2018-10-06T02:39:30.197Z,17.12
2018-10-06T02:42:00.549Z,18.40
2018-10-06T02:44:30.523Z,17.07
2018-10-06T02:47:00.561Z,17.82
2018-10-06T02:49:31.423Z,16.52
2018-10-06T02:52:01.391Z,22.37
2018-10-06T02:54:31.332Z,23.52
2018-10-06T02:57:01.378Z,20.60
2018-10-06T02:59:31.406Z,15.35
2018-10-06T03:02:01.443Z,26.42
2018-10-06T03:04:31.463Z,12.70
2018-10-06T03:07:01.525Z,17.50
2018-10-06T03:09:31.536Z,17.20
2018-10-06T03:12:01.490Z,18.48
2018-10-06T03:14:31.495Z,15.48
2018-10-06T03:17:01.447Z,15.58
2018-10-06T03:19:31.403Z,14.75
2018-10-06T03:22:01.448Z,15.28
2018-10-06T03:24:31.508Z,17.62
2018-10-06T03:27:01.509Z,16.42
2018-10-06T03:29:31.527Z,22.62
2018-10-06T03:32:01.584Z,12.88
2018-10-06T03:34:31.570Z,13.90
2018-10-06T03:37:01.518Z,23.50
2018-10-06T03:39:31.513Z,16.87
2018-10-06T03:42:01.542Z,19.67
2018-10-06T03:44:31.535Z,17.95
2018-10-06T03:47:01.596Z,14.90
2018-10-06T03:49:31.599Z,17.90
2018-10-06T03:52:01.534Z,16.05
2018-10-06T03:54:31.498Z,20.40
2018-10-06T03:57:01.563Z,17.20
2018-10-06T03:59:31.787Z,15.43
2018-10-06T04:02:01.794Z,16.95
2018-10-06T04:04:31.768Z,14.30
2018-10-06T04:07:01.772Z,14.23
2018-10-06T04:09:31.795Z,17.85
2018-10-06T04:12:01.783Z,17.40
2018-10-06T04:14:32.069Z,15.48
2018-10-06T04:17:02.053Z,18.10
2018-10-06T04:19:31.986Z,12.73
2018-10-06T04:22:01.939Z,19.90
2018-10-06T04:24:31.842Z,19.12
2018-10-06T04:27:01.819Z,16.57
2018-10-06T04:29:31.795Z,19.57
2018-10-06T04:32:01.762Z,13.98
2018-10-06T04:34:31.699Z,18.57
2018-10-06T04:37:01.682Z,17.25
2018-10-06T04:39:31.839Z,19.20
2018-10-06T04:42:01.794Z,18.12
2018-10-06T04:44:31.717Z,17.23
2018-10-06T04:47:01.667Z,18.00
2018-10-06T04:49:31.593Z,20.25
2018-10-06T04:52:01.606Z,17.73
2018-10-06T04:54:31.566Z,17.12
2018-10-06T04:57:01.632Z,20.27
2018-10-06T04:59:31.587Z,20.82
2018-10-06T05:02:01.524Z,15.28
2018-10-06T05:04:31.527Z,18.02
2018-10-06T05:07:01.468Z,15.85
2018-10-06T05:09:31.487Z,17.50
2018-10-06T05:12:01.890Z,16.82
2018-10-06T05:14:32.388Z,16.23
2018-10-06T05:17:02.310Z,16.45
2018-10-06T05:19:32.475Z,22.80
2018-10-06T05:22:02.406Z,22.95
2018-10-06T05:24:32.382Z,42.38
2018-10-06T05:27:02.334Z,30.57
2018-10-06T05:29:32.331Z,30.52
2018-10-06T05:32:02.340Z,28.02
2018-10-06T05:34:32.835Z,20.50
2018-10-06T05:37:02.903Z,29.07
2018-10-06T05:39:32.949Z,25.72
2018-10-06T05:42:02.847Z,21.65
2018-10-06T05:44:32.865Z,18.98
2018-10-06T05:47:02.931Z,16.48
2018-10-06T05:49:32.886Z,18.25
2018-10-06T05:52:02.878Z,16.90
2018-10-06T05:54:32.832Z,17.52
2018-10-06T05:57:02.810Z,18.20
2018-10-06T05:59:32.770Z,14.70
2018-10-06T06:02:02.793Z,16.15
2018-10-06T06:04:32.751Z,17.30
2018-10-06T06:07:03.206Z,27.37
2018-10-06T06:09:33.122Z,23.85
2018-10-06T06:12:03.131Z,24.92
2018-10-06T06:14:33.562Z,22.25
2018-10-06T06:17:03.515Z,19.23
2018-10-06T06:19:33.513Z,26.15
2018-10-06T06:22:04.531Z,14.75
2018-10-06T06:24:34.519Z,19.20
2018-10-06T06:27:04.489Z,17.98
2018-10-06T06:29:34.895Z,23.73
2018-10-06T06:32:04.924Z,19.15
2018-10-06T06:34:34.875Z,14.80
2018-10-06T06:37:04.874Z,18.45
2018-10-06T06:39:34.874Z,15.98
2018-10-06T06:42:04.798Z,22.82
2018-10-06T06:44:34.858Z,18.23
2018-10-06T06:47:04.944Z,14.25
2018-10-06T06:49:35.002Z,16.40
2018-10-06T06:52:05.685Z,21.87
2018-10-06T06:54:35.631Z,15.98
2018-10-06T06:57:06.009Z,17.45
2018-10-06T06:59:35.943Z,16.97
2018-10-06T07:02:05.959Z,17.10
2018-10-06T07:04:36.846Z,18.48
2018-10-06T07:07:06.924Z,14.37
2018-10-06T07:09:36.879Z,15.32
2018-10-06T07:12:07.090Z,16.03
2018-10-06T07:14:37.046Z,17.47
2018-10-06T07:17:07.375Z,11.43
2018-10-06T07:19:37.354Z,23.90
2018-10-06T07:22:07.681Z,15.90
2018-10-06T07:24:37.739Z,12.50
2018-10-06T07:27:07.697Z,11.13
2018-10-06T07:29:38.383Z,15.10
2018-10-06T07:32:08.435Z,14.87
2018-10-06T07:34:38.430Z,15.77
2018-10-06T07:37:08.422Z,11.40
2018-10-06T07:39:38.412Z,18.10
2018-10-06T07:42:08.383Z,13.07
2018-10-06T07:44:38.669Z,14.17
2018-10-06T07:47:08.654Z,13.83
2018-10-06T07:49:38.811Z,14.33
2018-10-06T07:52:08.746Z,18.80
2018-10-06T07:54:38.794Z,9.97
2018-10-06T07:57:08.751Z,21.67
2018-10-06T07:59:38.859Z,12.40
2018-10-06T08:02:08.814Z,9.97
2018-10-06T08:04:38.909Z,16.33
2018-10-06T08:07:08.871Z,13.67
2018-10-06T08:09:38.954Z,10.20
2018-10-06T08:12:09.164Z,12.70
2018-10-06T08:14:39.196Z,13.70
2018-10-06T08:17:09.114Z,10.77
2018-10-06T08:19:39.082Z,13.27
2018-10-06T08:22:09.311Z,12.67
2018-10-06T08:24:39.292Z,14.13
2018-10-06T08:27:09.278Z,14.23
2018-10-06T08:29:39.291Z,13.37
2018-10-06T08:32:09.323Z,17.27
2018-10-06T08:34:39.284Z,10.30
2018-10-06T08:37:10.094Z,10.53
2018-10-06T08:39:40.107Z,10.80
2018-10-06T08:42:10.099Z,11.77
2018-10-06T08:44:46.914Z,18.40
2018-10-06T08:47:17.014Z,10.73
2018-10-06T08:49:47.023Z,7.17
2018-10-06T08:52:16.952Z,11.50
2018-10-06T08:54:46.940Z,9.97
2018-10-06T08:57:16.897Z,12.73
2018-10-06T08:59:47.017Z,9.13
2018-10-06T09:02:16.996Z,11.53
2018-10-06T09:04:47.036Z,14.40
2018-10-06T09:07:17.006Z,14.60
2018-10-06T09:09:47.039Z,8.03
2018-10-06T09:12:17.200Z,9.83
2018-10-06T09:14:47.185Z,11.10
2018-10-06T09:17:17.355Z,10.33
2018-10-06T09:19:47.451Z,9.77
2018-10-06T09:22:17.626Z,17.30
2018-10-06T09:24:47.603Z,11.20
2018-10-06T09:27:17.549Z,9.60
2018-10-06T09:29:47.744Z,6.93
2018-10-06T09:32:17.769Z,7.60
2018-10-06T09:34:48.159Z,12.17
2018-10-06T09:37:18.160Z,7.70
2018-10-06T09:39:49.161Z,17.27
2018-10-06T09:42:19.317Z,10.50
2018-10-06T09:44:49.249Z,8.30
2018-10-06T09:47:19.223Z,10.47
2018-10-06T09:49:49.279Z,10.60
2018-10-06T09:52:19.170Z,9.07
2018-10-06T09:54:49.157Z,12.00
2018-10-06T09:57:19.575Z,9.37
2018-10-06T09:59:49.692Z,10.20
2018-10-06T10:02:24.990Z,16.90
2018-10-06T10:04:59.126Z,6.80
2018-10-06T10:07:29.162Z,9.03
2018-10-06T10:09:59.226Z,13.93
2018-10-06T10:12:29.158Z,6.17
2018-10-06T10:14:59.057Z,7.00
2018-10-06T10:17:29.056Z,10.73
2018-10-06T10:19:59.030Z,11.57
2018-10-06T10:22:29.268Z,6.90
2018-10-06T10:24:59.127Z,20.10
2018-10-06T10:27:29.101Z,8.73
2018-10-06T10:29:59.358Z,6.67
2018-10-06T10:32:30.379Z,11.63
2018-10-06T10:35:00.443Z,8.97
2018-10-06T10:37:30.414Z,12.63
2018-10-06T10:40:00.415Z,9.07
2018-10-06T10:42:30.459Z,9.27
2018-10-06T10:45:00.476Z,8.23
2018-10-06T10:47:30.582Z,9.80
2018-10-06T10:50:00.533Z,9.30
2018-10-06T10:52:30.570Z,8.80
2018-10-06T10:55:00.762Z,5.73
2018-10-06T10:57:30.822Z,11.27
2018-10-06T11:00:00.895Z,12.07
2018-10-06T11:02:30.779Z,14.87
2018-10-06T11:05:00.743Z,6.80
2018-10-06T11:07:30.678Z,6.73
2018-10-06T11:10:00.718Z,7.27
2018-10-06T11:12:30.679Z,7.70
2018-10-06T11:15:00.699Z,11.57
2018-10-06T11:17:30.862Z,9.47
2018-10-06T11:20:00.823Z,8.30
2018-10-06T11:22:31.200Z,9.70
2018-10-06T11:25:01.220Z,12.80
2018-10-06T11:27:31.147Z,8.43
2018-10-06T11:30:01.039Z,6.10
2018-10-06T11:32:31.223Z,8.23
2018-10-06T11:35:01.152Z,7.73
2018-10-06T11:37:31.082Z,5.23
2018-10-06T11:40:01.277Z,6.13
2018-10-06T11:42:31.173Z,5.43
2018-10-06T11:45:01.131Z,4.97
2018-10-06T11:47:31.297Z,7.73
2018-10-06T11:50:01.369Z,7.33
2018-10-06T11:52:31.440Z,9.17
2018-10-06T11:55:01.358Z,4.77
2018-10-06T11:57:31.314Z,5.43
2018-10-06T12:00:02.106Z,8.53
2018-10-06T12:02:32.111Z,5.80
2018-10-06T12:05:02.199Z,5.73
2018-10-06T12:07:32.190Z,4.73
2018-10-06T12:10:02.170Z,5.23
2018-10-06T12:12:32.204Z,12.47
2018-10-06T12:15:02.770Z,11.40
2018-10-06T12:17:32.694Z,4.53
2018-10-06T12:20:02.690Z,7.53
2018-10-06T12:22:32.657Z,8.40
2018-10-06T12:25:02.610Z,5.30
2018-10-06T12:27:32.658Z,4.37
2018-10-06T12:30:02.590Z,6.20
2018-10-06T12:32:32.639Z,5.63
2018-10-06T12:35:02.564Z,6.83
2018-10-06T12:37:32.544Z,11.70
2018-10-06T12:40:02.519Z,5.10
2018-10-06T12:42:32.505Z,7.17
2018-10-06T12:45:02.473Z,6.47
2018-10-06T12:47:32.441Z,5.33
2018-10-06T12:50:02.456Z,5.90
2018-10-06T12:52:32.719Z,5.03
2018-10-06T12:55:09.449Z,12.23
2018-10-06T12:57:39.407Z,6.93
2018-10-06T13:00:09.494Z,4.53
2018-10-06T13:02:39.627Z,5.90
2018-10-06T13:05:09.602Z,3.43
2018-10-06T13:07:39.526Z,5.00
2018-10-06T13:10:09.495Z,4.17
2018-10-06T13:12:39.411Z,5.90
2018-10-06T13:15:09.392Z,5.10
2018-10-06T13:17:39.380Z,5.03
2018-10-06T13:20:09.962Z,4.33
2018-10-06T13:22:40.205Z,3.93
2018-10-06T13:25:10.152Z,9.77
2018-10-06T13:27:40.106Z,4.77
2018-10-06T13:30:10.031Z,9.93
2018-10-06T13:32:46.909Z,5.13
2018-10-06T13:35:16.910Z,4.47
2018-10-06T13:37:46.799Z,5.90
2018-10-06T13:40:16.798Z,6.33
2018-10-06T13:42:46.722Z,3.70
2018-10-06T13:45:16.643Z,4.07
2018-10-06T13:47:46.565Z,4.97
2018-10-06T13:50:16.538Z,4.10
2018-10-06T13:52:46.504Z,4.50
2018-10-06T13:55:16.496Z,4.00
2018-10-06T13:57:46.522Z,7.83
2018-10-06T14:00:16.446Z,4.83
2018-10-06T14:02:46.409Z,4.47
2018-10-06T14:05:16.374Z,7.03
2018-10-06T14:07:46.258Z,4.70
2018-10-06T14:10:16.223Z,11.57
2018-10-06T14:12:46.186Z,4.03
2018-10-06T14:15:16.286Z,4.50
2018-10-06T14:17:46.201Z,6.00
2018-10-06T14:20:16.140Z,7.83
2018-10-06T14:22:46.096Z,4.43
2018-10-06T14:25:16.066Z,7.70
2018-10-06T14:27:46.019Z,8.20
2018-10-06T14:30:15.925Z,4.30
2018-10-06T14:32:45.864Z,4.53
2018-10-06T14:35:16.006Z,3.90
2018-10-06T14:37:45.964Z,8.53
2018-10-06T14:40:15.890Z,4.33
2018-10-06T14:42:45.782Z,5.70
2018-10-06T14:45:15.884Z,6.77
2018-10-06T14:47:45.812Z,4.57
2018-10-06T14:50:15.823Z,4.33
2018-10-06T14:52:45.743Z,4.27
2018-10-06T14:55:15.659Z,3.47
2018-10-06T14:57:45.569Z,3.70
2018-10-06T15:00:15.522Z,3.43
2018-10-06T15:02:45.492Z,4.03
2018-10-06T15:05:15.468Z,3.73
2018-10-06T15:07:45.426Z,4.87
2018-10-06T15:10:15.816Z,5.30
2018-10-06T15:12:45.701Z,4.13
2018-10-06T15:15:15.794Z,4.30
2018-10-06T15:17:45.809Z,3.87
2018-10-06T15:20:15.724Z,9.23
2018-10-06T15:22:52.561Z,3.07
2018-10-06T15:25:22.586Z,4.03
2018-10-06T15:27:52.491Z,4.23
2018-10-06T15:30:22.463Z,8.17
2018-10-06T15:32:52.402Z,3.87
2018-10-06T15:35:22.378Z,4.80
2018-10-06T15:37:52.486Z,5.00
2018-10-06T15:40:22.378Z,4.70
2018-10-06T15:42:52.335Z,5.00
2018-10-06T15:45:22.300Z,5.87
2018-10-06T15:47:52.238Z,5.83
2018-10-06T15:50:22.154Z,5.63
2018-10-06T15:52:52.262Z,5.97
2018-10-06T15:55:22.296Z,5.47
2018-10-06T15:57:52.226Z,4.53
2018-10-06T16:00:22.343Z,4.73
2018-10-06T16:02:52.382Z,4.93
2018-10-06T16:05:22.227Z,4.70
2018-10-06T16:07:52.202Z,7.30
2018-10-06T16:10:22.257Z,4.00
2018-10-06T16:12:52.202Z,5.13
2018-10-06T16:15:22.126Z,4.03
2018-10-06T16:17:52.080Z,5.20
2018-10-06T16:20:22.067Z,6.73
2018-10-06T16:22:52.170Z,5.63
2018-10-06T16:25:22.101Z,6.33
2018-10-06T16:27:51.994Z,5.23
2018-10-06T16:30:21.989Z,6.43
2018-10-06T16:32:51.911Z,6.20
2018-10-06T16:35:21.902Z,7.83
2018-10-06T16:37:52.313Z,5.03
2018-10-06T16:40:25.216Z,5.90
2018-10-06T16:42:55.175Z,5.60
2018-10-06T16:45:25.166Z,6.50
2018-10-06T16:47:55.124Z,10.13
2018-10-06T16:50:25.071Z,8.50
2018-10-06T16:52:55.026Z,5.27
2018-10-06T16:55:25.032Z,5.60
2018-10-06T16:57:54.987Z,12.57
2018-10-06T17:00:25.124Z,6.80
2018-10-06T17:02:55.067Z,10.50
2018-10-06T17:05:25.543Z,6.57
2018-10-06T17:14:54.016Z,15.83
2018-10-06T17:17:23.930Z,14.37
2018-10-06T17:19:53.860Z,8.20
2018-10-06T17:22:23.963Z,8.90
2018-10-06T17:24:53.996Z,10.67
2018-10-06T17:27:23.960Z,9.00
2018-10-06T17:29:54.173Z,12.03
2018-10-06T17:32:24.094Z,10.77
2018-10-06T17:34:54.223Z,9.20
2018-10-06T17:37:24.275Z,11.27
2018-10-06T17:39:54.271Z,9.73
2018-10-06T17:42:24.282Z,10.47
2018-10-06T17:44:54.226Z,11.30
2018-10-06T17:47:24.199Z,12.53
2018-10-06T17:49:54.228Z,11.90
2018-10-06T17:52:24.303Z,9.90
2018-10-06T17:54:54.364Z,13.33
2018-10-06T17:57:24.370Z,13.77
2018-10-06T17:59:54.280Z,15.43
2018-10-06T18:02:24.406Z,12.33
2018-10-06T18:04:54.524Z,12.67
2018-10-06T18:07:24.561Z,18.77
2018-10-06T18:09:54.519Z,20.90
2018-10-06T18:12:24.450Z,15.63
2018-10-06T18:14:54.544Z,16.63
2018-10-06T18:17:24.475Z,13.33
2018-10-06T18:19:54.429Z,14.90
2018-10-06T18:22:24.347Z,13.67
2018-10-06T18:25:01.052Z,11.50
2018-10-06T18:27:30.960Z,12.43
2018-10-06T18:30:00.889Z,15.07
2018-10-06T18:32:30.815Z,14.73
2018-10-06T18:35:00.727Z,11.60
2018-10-06T18:37:30.674Z,11.27
2018-10-06T18:40:00.594Z,10.00
2018-10-06T18:42:30.495Z,16.53
2018-10-06T18:45:00.426Z,16.57
2018-10-06T18:47:31.198Z,14.63
2018-10-06T18:50:01.783Z,12.33
2018-10-06T18:52:31.807Z,15.53
2018-10-06T18:55:01.797Z,16.93
2018-10-06T18:57:33.197Z,9.00
2018-10-06T19:00:03.314Z,9.73
2018-10-06T19:02:33.304Z,9.87
2018-10-06T19:05:03.557Z,10.03
2018-10-06T19:07:33.505Z,25.70
2018-10-06T19:10:03.553Z,11.70
2018-10-06T19:12:33.430Z,14.10
2018-10-06T19:15:03.426Z,13.10
2018-10-06T19:17:33.434Z,17.73
2018-10-06T19:20:03.358Z,16.87
2018-10-06T19:22:33.335Z,20.67
2018-10-06T19:25:03.287Z,16.80
2018-10-06T19:27:33.473Z,20.30
2018-10-06T19:30:10.060Z,21.33
2018-10-06T19:32:40.035Z,12.63
2018-10-06T19:35:09.963Z,17.03
2018-10-06T19:37:39.937Z,80.57
2018-10-06T19:40:09.877Z,32.40
2018-10-06T19:42:39.870Z,33.80
2018-10-06T19:45:09.761Z,23.60
2018-10-06T19:47:40.353Z,17.30
2018-10-06T19:50:12.106Z,18.03
2018-10-06T19:52:42.065Z,14.90
2018-10-06T19:55:12.008Z,18.63
2018-10-06T19:57:41.965Z,14.07
2018-10-06T20:00:11.937Z,15.67
2018-10-06T20:02:41.858Z,12.77
2018-10-06T20:05:11.872Z,15.23
2018-10-06T20:07:41.834Z,13.90
2018-10-06T20:10:11.780Z,12.77
2018-10-06T20:12:41.957Z,19.03
2018-10-06T20:15:12.130Z,19.40
2018-10-06T20:17:42.057Z,12.27
2018-10-06T20:20:12.061Z,17.57
2018-10-06T20:22:42.019Z,19.53
2018-10-06T20:25:11.989Z,30.50
2018-10-06T20:27:41.943Z,28.87
2018-10-06T20:30:11.913Z,18.60
2018-10-06T20:32:41.831Z,17.13
2018-10-06T20:35:12.024Z,13.43
2018-10-06T20:37:41.965Z,17.97
2018-10-06T20:40:14.991Z,16.93
2018-10-06T20:42:45.375Z,14.93
2018-10-06T20:45:15.319Z,12.37
2018-10-06T20:47:45.272Z,13.00
2018-10-06T20:50:15.269Z,15.13
2018-10-06T20:52:45.299Z,16.53
2018-10-06T20:55:15.278Z,13.77
2018-10-06T20:57:45.241Z,18.67
2018-10-06T21:00:15.166Z,14.80
2018-10-06T21:02:45.909Z,15.23
2018-10-06T21:05:18.050Z,14.10
2018-10-06T21:07:47.954Z,14.57
2018-10-06T21:10:19.141Z,18.60
2018-10-06T21:12:49.461Z,13.27
2018-10-06T21:15:19.596Z,13.50
2018-10-06T21:17:49.530Z,11.20
2018-10-06T21:20:19.493Z,12.43
2018-10-06T21:22:49.455Z,20.40
2018-10-06T21:25:19.420Z,12.83
2018-10-06T21:27:49.365Z,45.73
2018-10-06T21:30:19.309Z,15.33
2018-10-06T21:32:49.449Z,12.80
2018-10-06T21:35:19.431Z,19.93
2018-10-06T21:37:49.417Z,11.80
2018-10-06T21:40:19.342Z,11.50
2018-10-06T21:42:50.653Z,11.37
2018-10-06T21:45:20.686Z,12.60
2018-10-06T21:47:51.290Z,12.60
2018-10-06T21:50:21.230Z,12.63
2018-10-06T21:52:51.171Z,11.63
2018-10-06T21:55:21.096Z,12.40
2018-10-06T21:57:51.058Z,21.63
2018-10-06T22:00:21.070Z,14.67
2018-10-06T22:02:51.046Z,14.87
2018-10-06T22:05:21.004Z,22.70
2018-10-06T22:07:51.049Z,22.17
2018-10-06T22:10:20.993Z,18.43
2018-10-06T22:12:50.917Z,13.60
2018-10-06T22:15:21.042Z,13.37
2018-10-06T22:17:50.889Z,13.87
2018-10-06T22:20:20.929Z,11.53
2018-10-06T22:22:50.894Z,14.07
2018-10-06T22:25:20.853Z,14.03
2018-10-06T22:27:50.819Z,16.83
2018-10-06T22:30:20.761Z,17.67
2018-10-06T22:32:50.701Z,26.30
2018-10-06T22:35:20.625Z,14.10
2018-10-06T22:37:50.632Z,12.53
2018-10-06T22:40:20.545Z,18.13
2018-10-06T22:42:50.705Z,15.27
2018-10-06T22:45:20.633Z,13.10
2018-10-06T22:47:50.546Z,19.03
2018-10-06T22:50:20.524Z,17.67
2018-10-06T22:52:50.527Z,12.50
2018-10-06T22:55:20.438Z,16.13
2018-10-06T22:57:50.410Z,23.00
2018-10-06T23:00:20.354Z,32.70
2018-10-06T23:02:50.383Z,17.07
2018-10-06T23:05:20.362Z,20.73
2018-10-06T23:07:50.423Z,20.23
2018-10-06T23:10:20.367Z,17.87
2018-10-06T23:12:50.352Z,18.43
2018-10-06T23:15:20.322Z,14.40
2018-10-06T23:17:50.273Z,13.23
2018-10-06T23:20:20.350Z,12.40
2018-10-06T23:22:50.286Z,19.97
2018-10-06T23:25:20.244Z,18.23
2018-10-06T23:27:50.204Z,16.30
2018-10-06T23:30:20.156Z,13.43
2018-10-06T23:32:50.056Z,26.10
2018-10-06T23:35:20.086Z,82.20
2018-10-06T23:37:50.078Z,32.87
2018-10-06T23:40:19.989Z,20.57
2018-10-06T23:42:49.913Z,15.97
2018-10-06T23:45:19.900Z,14.10
2018-10-06T23:47:49.940Z,15.63
2018-10-06T23:50:19.942Z,14.17
2018-10-06T23:52:49.902Z,12.83
2018-10-06T23:55:19.860Z,13.60
2018-10-06T23:57:49.950Z,12.70
